Time;durP1;ratioP1;P1;durP2;ratioP2;P2;SDS_P1;SDS_P2;PMS_P1;PMS_P2;Temp;Humidity;BMP_temperature;BMP_pressure;BME280_temperature;BME280_humidity;BME280_pressure;Samples;Min_cycle;Max_cycle;Signal;HPM_P1;HPM_P2
2022/01/28 00:01:44;;;;;;;9.00;2.00;;;4.20;99.90;;;;;;4954181;29;20043;-79
2022/01/28 00:04:14;;;;;;;10.75;1.88;;;4.30;99.90;;;;;;4954564;29;20490;-79
2022/01/28 00:06:40;;;;;;;7.75;2.40;;;4.30;99.90;;;;;;4953768;29;20047;-79
2022/01/28 00:09:06;;;;;;;9.27;1.90;;;4.40;99.90;;;;;;4955177;29;20540;-79
2022/01/28 00:11:32;;;;;;;6.95;1.67;;;4.40;99.90;;;;;;4952989;29;20055;-79
2022/01/28 00:14:13;;;;;;;10.65;1.98;;;4.40;99.90;;;;;;4952910;29;20071;-79
2022/01/28 00:38:35;;;;;;;12.25;2.13;;;4.30;99.90;;;;;;4952333;29;20054;-77
2022/01/28 00:41:01;;;;;;;8.18;1.95;;;4.20;99.90;;;;;;4951487;29;20051;-78
2022/01/28 00:43:27;;;;;;;15.18;2.13;;;4.20;99.90;;;;;;4936547;29;20043;-79
2022/01/28 00:45:53;;;;;;;10.77;2.20;;;4.10;99.90;;;;;;4936322;29;20066;-79
2022/01/28 00:48:18;;;;;;;12.52;2.53;;;4.10;99.90;;;;;;4952862;29;20101;-78
2022/01/28 00:50:44;;;;;;;19.48;4.00;;;4.10;99.90;;;;;;4952525;29;20537;-78
2022/01/28 00:53:10;;;;;;;12.07;2.03;;;4.00;99.90;;;;;;4952718;29;20039;-78
2022/01/28 00:55:36;;;;;;;14.30;2.85;;;4.00;99.90;;;;;;4951862;28;20043;-78
2022/01/28 00:58:02;;;;;;;10.85;2.30;;;4.00;99.90;;;;;;4956173;29;20041;-78
2022/01/28 01:00:28;;;;;;;16.80;3.05;;;4.00;99.90;;;;;;4954974;29;20039;-79
2022/01/28 01:02:53;;;;;;;19.30;2.55;;;4.00;99.90;;;;;;4956632;29;20050;-79
2022/01/28 01:05:20;;;;;;;17.52;2.63;;;4.00;99.90;;;;;;4955641;29;20074;-79
2022/01/28 01:07:46;;;;;;;10.10;1.92;;;4.00;99.90;;;;;;4939977;29;20082;-79
2022/01/28 01:10:11;;;;;;;13.63;2.65;;;4.00;99.90;;;;;;4955044;29;20043;-79
2022/01/28 01:12:40;;;;;;;10.35;1.95;;;4.00;99.90;;;;;;4955208;29;20098;-79
2022/01/28 01:15:07;;;;;;;10.23;3.38;;;4.00;99.90;;;;;;4956197;29;20043;-78
2022/01/28 01:17:45;;;;;;;10.65;2.38;;;4.00;99.90;;;;;;4956426;29;20118;-78
2022/01/28 01:20:31;;;;;;;8.68;1.83;;;4.10;99.90;;;;;;4956290;29;20051;-78
2022/01/28 01:23:10;;;;;;;14.65;2.15;;;4.10;99.90;;;;;;4956550;29;20402;-77
2022/01/28 01:28:37;;;;;;;20.65;3.13;;;4.20;99.90;;;;;;4951590;29;20414;-78
2022/01/28 01:31:05;;;;;;;14.52;3.38;;;4.30;99.90;;;;;;4955757;29;20046;-78
2022/01/28 01:33:36;;;;;;;19.63;3.03;;;4.30;99.90;;;;;;4955779;29;20417;-78
2022/01/28 01:36:03;;;;;;;14.52;3.13;;;4.40;99.90;;;;;;4955742;29;20054;-78
2022/01/28 01:38:32;;;;;;;14.23;3.40;;;4.30;99.90;;;;;;4956089;29;20074;-77
2022/01/28 01:41:01;;;;;;;17.92;2.42;;;4.30;99.90;;;;;;4955566;29;20039;-78
2022/01/28 01:53:48;;;;;;;12.15;1.95;;;4.20;99.90;;;;;;4955799;29;20458;-78
2022/01/28 01:56:13;;;;;;;17.60;2.30;;;4.10;99.90;;;;;;4957449;29;20047;-78
2022/01/28 01:58:40;;;;;;;23.55;3.50;;;4.10;99.90;;;;;;4959458;28;20044;-78
2022/01/28 02:01:07;;;;;;;18.90;2.22;;;4.10;99.90;;;;;;4956549;29;20479;-78
2022/01/28 02:03:32;;;;;;;21.60;2.65;;;4.10;99.90;;;;;;4955561;29;20054;-78
2022/01/28 02:05:59;;;;;;;21.60;2.25;;;4.10;99.90;;;;;;4955641;29;20047;-78
2022/01/28 02:08:31;;;;;;;10.73;1.90;;;3.90;99.90;;;;;;4954121;28;20053;-78
2022/01/28 02:10:58;;;;;;;14.63;1.90;;;4.00;99.90;;;;;;4955702;29;20113;-78
2022/01/28 02:13:29;;;;;;;16.85;2.47;;;3.90;99.90;;;;;;4955602;29;20093;-78
2022/01/28 02:15:57;;;;;;;12.50;1.90;;;3.90;99.90;;;;;;4955298;29;20043;-78
2022/01/28 02:18:24;;;;;;;12.70;2.42;;;3.90;99.90;;;;;;4955390;29;20119;-78
2022/01/28 02:20:53;;;;;;;12.10;2.20;;;3.90;99.90;;;;;;4955668;29;20054;-78
2022/01/28 02:23:21;;;;;;;12.98;2.15;;;4.00;99.90;;;;;;4955453;29;20521;-78
2022/01/28 02:25:47;;;;;;;14.15;2.40;;;4.00;99.90;;;;;;4955054;29;20043;-78
2022/01/28 02:28:16;;;;;;;13.60;2.30;;;4.00;99.90;;;;;;4954963;29;20051;-78
2022/01/28 02:30:43;;;;;;;8.18;2.20;;;3.90;99.90;;;;;;4954988;29;20491;-78
2022/01/28 02:33:12;;;;;;;21.52;2.90;;;3.90;99.90;;;;;;4954773;29;20442;-78
2022/01/28 02:35:38;;;;;;;15.55;2.45;;;3.90;99.90;;;;;;4954634;29;20101;-77
2022/01/28 02:38:04;;;;;;;19.65;1.88;;;3.90;99.90;;;;;;4954669;29;20090;-78
2022/01/28 02:40:31;;;;;;;17.13;2.45;;;3.90;99.90;;;;;;4955068;29;20039;-78
2022/01/28 02:43:02;;;;;;;18.88;2.80;;;3.90;99.90;;;;;;4954336;29;20043;-78
2022/01/28 02:45:35;;;;;;;15.68;2.85;;;3.90;99.90;;;;;;4954654;29;20094;-77
2022/01/28 02:48:04;;;;;;;;;;;3.90;99.90;;;;;;4954940;29;20050;-78
2022/01/28 02:50:38;;;;;;;17.73;2.75;;;3.80;99.90;;;;;;4954456;29;19925;-78
2022/01/28 02:53:08;;;;;;;15.48;2.25;;;3.80;99.90;;;;;;4953744;29;20066;-78
2022/01/28 02:55:38;;;;;;;22.00;2.40;;;3.70;99.90;;;;;;4954029;29;20051;-78
2022/01/28 02:58:26;;;;;;;11.25;2.25;;;3.70;99.90;;;;;;4953763;29;20089;-78
2022/01/28 03:00:52;;;;;;;13.15;2.83;;;3.70;99.90;;;;;;4954192;29;20047;-77
2022/01/28 03:03:19;;;;;;;11.20;2.85;;;3.60;99.90;;;;;;4954520;29;20616;-78
2022/01/28 03:05:45;;;;;;;20.48;3.70;;;3.60;99.90;;;;;;4954047;29;20047;-78
2022/01/28 03:08:11;;;;;;;12.73;1.98;;;3.70;99.90;;;;;;4954018;29;20055;-78
2022/01/28 03:15:36;;;;;;;14.25;3.38;;;3.80;99.90;;;;;;4954263;29;20051;-78
2022/01/28 03:22:59;;;;;;;14.02;3.05;;;3.90;99.90;;;;;;4954038;29;20043;-77
2022/01/28 03:25:25;;;;;;;18.65;2.38;;;3.90;99.90;;;;;;4954924;29;20483;-77
2022/01/28 03:27:54;;;;;;;15.60;2.80;;;3.90;99.90;;;;;;4955004;28;20410;-78
2022/01/28 03:30:19;;;;;;;13.38;3.83;;;4.00;99.90;;;;;;4954971;28;20043;-78
2022/01/28 03:32:45;;;;;;;17.70;2.90;;;4.00;99.90;;;;;;4953497;29;20069;-78
2022/01/28 03:35:14;;;;;;;23.40;4.30;;;4.10;99.90;;;;;;4937577;29;20054;-78
2022/01/28 03:37:40;;;;;;;14.48;3.55;;;4.10;99.90;;;;;;4953604;29;20047;-78
2022/01/28 03:40:07;;;;;;;12.00;2.03;;;4.10;99.90;;;;;;4953841;29;20039;-78
2022/01/28 03:42:34;;;;;;;13.65;2.63;;;4.20;99.90;;;;;;4953589;29;20039;-78
2022/01/28 03:44:59;;;;;;;16.33;2.03;;;4.20;99.90;;;;;;4937485;29;20047;-78
2022/01/28 03:47:25;;;;;;;10.32;1.60;;;4.30;99.90;;;;;;4953489;29;20046;-78
2022/01/28 03:49:51;;;;;;;16.30;2.25;;;4.30;99.90;;;;;;4953409;29;20053;-78
2022/01/28 03:52:16;;;;;;;21.88;2.97;;;4.30;99.90;;;;;;4953401;29;20042;-78
2022/01/28 03:54:42;;;;;;;19.50;2.45;;;4.30;99.90;;;;;;4953501;29;20595;-78
2022/01/28 03:57:08;;;;;;;17.15;2.63;;;4.30;99.90;;;;;;4953373;29;20097;-78
2022/01/28 03:59:34;;;;;;;14.55;2.60;;;4.30;99.90;;;;;;4953146;29;20043;-78
2022/01/28 04:02:00;;;;;;;18.02;3.08;;;4.30;99.90;;;;;;4953397;29;20046;-78
2022/01/28 04:12:40;;;;;;;11.45;1.95;;;4.20;99.90;;;;;;4936315;28;20125;-78
2022/01/28 04:15:36;;;;;;;16.15;2.80;;;4.20;99.90;;;;;;4954258;28;20054;-78
2022/01/28 04:18:01;;;;;;;17.48;2.88;;;4.20;99.90;;;;;;4953277;29;20055;-77
2022/01/28 04:20:27;;;;;;;14.70;2.67;;;4.20;99.90;;;;;;4952852;29;20090;-78
2022/01/28 04:22:53;;;;;;;16.17;2.50;;;4.30;99.90;;;;;;4952791;29;20130;-78
2022/01/28 04:25:18;;;;;;;16.27;2.97;;;4.30;99.90;;;;;;4939664;29;20039;-79
2022/01/28 04:27:44;;;;;;;19.70;2.50;;;4.30;99.90;;;;;;4940471;29;20087;-79
2022/01/28 04:30:10;;;;;;;18.10;2.80;;;4.40;99.90;;;;;;4955817;28;20050;-79
2022/01/28 04:32:37;;;;;;;12.27;2.67;;;4.40;99.90;;;;;;4954853;29;20102;-79
2022/01/28 04:35:03;;;;;;;20.90;3.03;;;4.30;99.90;;;;;;4958004;28;20080;-80
2022/01/28 04:40:14;;;;;;;20.75;2.90;;;4.30;99.90;;;;;;4956216;29;20099;-79
2022/01/28 04:48:10;;;;;;;15.55;3.10;;;4.30;99.90;;;;;;4955931;29;20084;-79
2022/01/28 04:51:09;;;;;;;16.10;2.17;;;4.30;99.90;;;;;;4956458;29;20414;-79
2022/01/28 04:53:51;;;;;;;11.63;2.38;;;4.30;99.90;;;;;;4956681;29;20414;-79
2022/01/28 04:56:29;;;;;;;;;;;4.30;99.90;;;;;;4955883;29;20105;-79
2022/01/28 05:04:49;;;;;;;18.05;3.30;;;4.40;99.90;;;;;;4955417;29;20055;-79
2022/01/28 05:07:30;;;;;;;12.55;2.47;;;4.40;99.90;;;;;;4954558;29;20058;-79
2022/01/28 05:13:11;;;;;;;12.77;2.92;;;4.50;99.90;;;;;;4956192;29;20059;-79
2022/01/28 05:16:03;;;;;;;17.13;2.67;;;4.60;99.90;;;;;;4956093;29;20467;-80
2022/01/28 05:28:58;;;;;;;16.95;3.33;;;4.70;99.90;;;;;;4956323;29;20043;-79
2022/01/28 05:31:23;;;;;;;14.02;2.60;;;4.70;99.90;;;;;;4956420;29;20043;-79
2022/01/28 05:33:49;;;;;;;14.30;3.38;;;4.80;99.90;;;;;;4955778;29;20057;-79
2022/01/28 05:36:15;;;;;;;15.63;3.60;;;4.80;99.90;;;;;;4955504;29;20051;-79
2022/01/28 05:38:40;;;;;;;15.23;2.40;;;4.80;99.90;;;;;;4955398;29;20075;-79
2022/01/28 05:41:06;;;;;;;19.92;2.85;;;4.80;99.90;;;;;;4956103;29;20418;-79
2022/01/28 05:43:32;;;;;;;21.58;3.88;;;4.80;99.90;;;;;;4958926;28;20036;-79
2022/01/28 05:45:57;;;;;;;17.92;3.05;;;4.80;99.90;;;;;;4944269;29;20585;-78
2022/01/28 05:48:23;;;;;;;23.42;4.00;;;4.80;99.90;;;;;;4956824;28;20046;-78
2022/01/28 05:50:48;;;;;;;13.32;2.63;;;4.80;99.90;;;;;;4956662;29;20047;-78
2022/01/28 05:53:14;;;;;;;22.42;2.92;;;4.90;99.90;;;;;;4955410;29;20070;-78
2022/01/28 05:55:40;;;;;;;15.10;2.25;;;4.80;99.90;;;;;;4955218;29;20130;-78
2022/01/28 05:58:06;;;;;;;19.92;2.80;;;4.80;99.90;;;;;;4955415;29;20088;-78
2022/01/28 06:00:31;;;;;;;18.95;2.55;;;4.80;99.90;;;;;;4955230;29;20067;-78
2022/01/28 06:02:57;;;;;;;15.02;3.22;;;4.70;99.90;;;;;;4955387;29;20043;-78
2022/01/28 06:05:29;;;;;;;18.20;4.40;;;4.70;99.90;;;;;;4956126;28;20122;-78
2022/01/28 06:07:55;;;;;;;18.50;2.72;;;4.60;99.90;;;;;;4954213;29;20043;-78
2022/01/28 06:10:20;;;;;;;24.40;4.28;;;4.50;99.90;;;;;;4955152;29;20251;-78
2022/01/28 06:12:47;;;;;;;19.90;2.88;;;4.40;99.90;;;;;;4955449;29;20122;-77
2022/01/28 06:15:15;;;;;;;15.57;2.25;;;4.30;99.90;;;;;;4961286;29;20043;-81
2022/01/28 06:17:40;;;;;;;29.92;9.65;;;4.20;99.90;;;;;;4946452;29;20107;-80
2022/01/28 06:20:09;;;;;;;12.25;4.15;;;4.10;99.90;;;;;;4961750;29;20069;-81
2022/01/28 06:22:41;;;;;;;19.15;3.70;;;4.00;99.90;;;;;;4945446;29;20043;-80
2022/01/28 06:25:08;;;;;;;19.38;3.20;;;4.00;99.90;;;;;;4961029;29;20047;-81
2022/01/28 06:27:34;;;;;;;18.75;3.92;;;3.90;99.90;;;;;;4961893;29;20134;-81
2022/01/28 06:30:00;;;;;;;22.05;3.95;;;3.80;99.90;;;;;;4945821;29;20043;-81
2022/01/28 06:32:26;;;;;;;17.88;4.18;;;3.80;99.90;;;;;;4960613;29;20155;-81
2022/01/28 06:34:51;;;;;;;18.63;3.38;;;3.70;99.90;;;;;;4961058;29;20110;-81
2022/01/28 06:37:17;;;;;;;21.38;3.55;;;3.70;99.90;;;;;;4961156;29;20050;-81
2022/01/28 06:39:42;;;;;;;47.03;15.82;;;3.60;99.90;;;;;;4942943;29;20060;-81
2022/01/28 06:42:08;;;;;;;25.95;4.10;;;3.50;99.90;;;;;;4958701;29;20047;-81
2022/01/28 06:44:34;;;;;;;14.93;4.45;;;3.50;99.90;;;;;;4960372;29;20046;-81
2022/01/28 06:47:00;;;;;;;23.73;5.75;;;3.50;99.90;;;;;;4945115;29;20043;-81
2022/01/28 06:49:25;;;;;;;25.60;4.05;;;3.40;99.90;;;;;;4943967;29;20054;-82
2022/01/28 06:51:51;;;;;;;14.70;2.85;;;3.40;99.90;;;;;;4944256;29;20051;-81
2022/01/28 06:54:16;;;;;;;15.68;2.60;;;3.50;99.90;;;;;;4942916;29;20039;-81
2022/01/28 06:56:42;;;;;;;14.25;3.13;;;3.50;99.90;;;;;;4959932;29;20047;-81
2022/01/28 06:59:07;;;;;;;19.63;3.85;;;3.60;99.90;;;;;;4959627;29;20458;-81
2022/01/28 07:01:33;;;;;;;20.42;3.47;;;3.50;99.90;;;;;;4960044;29;20554;-81
2022/01/28 07:04:00;;;;;;;20.20;3.40;;;3.60;99.90;;;;;;4959980;29;20122;-81
2022/01/28 07:06:26;;;;;;;16.67;2.75;;;3.60;99.90;;;;;;4940587;29;20055;-81
2022/01/28 07:08:51;;;;;;;19.80;3.40;;;3.60;99.90;;;;;;4941252;29;20065;-81
2022/01/28 07:11:17;;;;;;;14.43;2.72;;;3.60;99.90;;;;;;4957890;29;20503;-81
2022/01/28 07:13:43;;;;;;;13.63;2.75;;;3.60;99.90;;;;;;4946473;29;20569;-81
2022/01/28 07:16:09;;;;;;;18.38;2.90;;;3.50;99.90;;;;;;4944152;29;20044;-81
2022/01/28 07:18:35;;;;;;;10.40;2.00;;;3.50;99.90;;;;;;4938683;29;20426;-81
2022/01/28 07:21:00;;;;;;;18.52;2.50;;;3.40;99.90;;;;;;4976992;28;20456;-81
2022/01/28 07:23:26;;;;;;;29.83;3.78;;;3.40;99.90;;;;;;4956439;29;20051;-82
2022/01/28 07:25:51;;;;;;;22.65;4.32;;;3.40;99.90;;;;;;4953750;29;20047;-82
2022/01/28 07:28:17;;;;;;;18.45;3.80;;;3.30;99.90;;;;;;4938124;29;20050;-82
2022/01/28 07:30:42;;;;;;;28.33;3.95;;;3.30;99.90;;;;;;4937803;29;20079;-82
2022/01/28 07:33:10;;;;;;;14.95;2.05;;;3.20;99.90;;;;;;4953824;29;20395;-82
2022/01/28 07:35:36;;;;;;;13.27;3.50;;;3.20;99.90;;;;;;4938219;29;20106;-82
2022/01/28 07:38:03;;;;;;;20.60;4.28;;;3.20;99.90;;;;;;4973214;28;20045;-81
2022/01/28 07:40:28;;;;;;;19.70;3.45;;;3.20;99.90;;;;;;4961008;28;20043;-81
2022/01/28 07:42:54;;;;;;;18.25;3.83;;;3.20;99.90;;;;;;4945110;29;20074;-81
2022/01/28 07:45:20;;;;;;;14.27;3.50;;;3.20;99.90;;;;;;4944558;29;20046;-81
2022/01/28 07:47:45;;;;;;;13.52;2.60;;;3.20;99.90;;;;;;4943845;29;20031;-81
2022/01/28 07:50:12;;;;;;;21.45;3.45;;;3.20;99.90;;;;;;4960225;29;20520;-82
2022/01/28 07:52:39;;;;;;;14.30;3.10;;;3.20;99.90;;;;;;4958538;29;20039;-81
2022/01/28 07:55:06;;;;;;;26.58;3.78;;;3.20;99.90;;;;;;4959166;29;20067;-81
2022/01/28 07:57:32;;;;;;;28.77;8.82;;;3.30;99.90;;;;;;4959432;28;20163;-81
2022/01/28 07:59:58;;;;;;;21.58;5.65;;;3.30;99.90;;;;;;4955316;29;20060;-80
2022/01/28 08:02:23;;;;;;;17.38;4.18;;;3.30;99.90;;;;;;4954973;29;20035;-81
2022/01/28 08:04:49;;;;;;;27.08;5.07;;;3.40;99.90;;;;;;4954853;28;20047;-79
2022/01/28 08:07:14;;;;;;;13.73;3.80;;;3.40;99.90;;;;;;4937947;29;20035;-80
2022/01/28 08:09:40;;;;;;;19.45;3.00;;;3.50;99.90;;;;;;4955650;29;20094;-79
2022/01/28 08:12:06;;;;;;;15.38;2.53;;;3.50;99.90;;;;;;4947537;29;20074;-80
2022/01/28 08:14:32;;;;;;;26.35;3.85;;;3.60;99.90;;;;;;4964200;29;20035;-80
2022/01/28 08:16:58;;;;;;;19.27;2.90;;;3.60;99.90;;;;;;4979718;28;20123;-81
2022/01/28 08:19:24;;;;;;;23.40;3.38;;;3.70;99.90;;;;;;4963223;28;20039;-80
2022/01/28 08:21:50;;;;;;;32.50;9.50;;;3.70;99.90;;;;;;4947386;29;20038;-83
2022/01/28 08:24:16;;;;;;;21.80;3.92;;;3.70;99.90;;;;;;4946078;29;20069;-82
2022/01/28 08:26:41;;;;;;;22.65;5.07;;;3.90;99.90;;;;;;4946621;29;20055;-79
2022/01/28 08:29:07;;;;;;;24.67;3.58;;;3.80;99.90;;;;;;4947375;29;20050;-80
2022/01/28 08:31:33;;;;;;;24.60;3.35;;;3.80;99.90;;;;;;4946668;29;20051;-80
2022/01/28 08:34:00;;;;;;;18.02;2.72;;;3.80;99.90;;;;;;4948322;29;20048;-82
2022/01/28 08:36:26;;;;;;;12.48;3.58;;;3.90;99.90;;;;;;4948965;29;20035;-80
2022/01/28 08:38:54;;;;;;;20.27;6.28;;;3.90;99.90;;;;;;4948717;29;20474;-80
2022/01/28 08:41:20;;;;;;;14.35;2.50;;;4.10;99.90;;;;;;4964643;29;20095;-80
2022/01/28 08:43:46;;;;;;;17.23;2.70;;;4.30;99.90;;;;;;4949669;29;20061;-79
2022/01/28 08:46:12;;;;;;;13.02;2.28;;;4.40;99.90;;;;;;4964728;29;20110;-80
2022/01/28 08:48:38;;;;;;;18.63;2.75;;;4.40;99.90;;;;;;4969220;28;20043;-81
2022/01/28 08:51:04;;;;;;;22.65;5.78;;;4.40;99.90;;;;;;4965700;29;20039;-81
2022/01/28 08:53:30;;;;;;;18.85;4.57;;;4.50;99.90;;;;;;4949551;29;20179;-80
2022/01/28 08:55:55;;;;;;;19.45;4.53;;;4.50;99.90;;;;;;4949253;29;20035;-81
2022/01/28 08:58:22;;;;;;;22.00;3.33;;;4.50;99.90;;;;;;4950136;29;20079;-80
2022/01/28 09:00:48;;;;;;;26.67;3.45;;;4.50;99.90;;;;;;4952176;29;20039;-80
2022/01/28 09:03:18;;;;;;;19.02;3.40;;;4.40;99.90;;;;;;4953783;29;20034;-81
2022/01/28 09:05:45;;;;;;;16.13;2.67;;;4.40;99.90;;;;;;4950711;29;20123;-80
2022/01/28 09:08:10;;;;;;;18.48;3.38;;;4.50;99.90;;;;;;4949532;29;20114;-80
2022/01/28 09:10:43;;;;;;;16.50;4.13;;;4.60;99.90;;;;;;4950421;29;20585;-81
2022/01/28 09:15:41;;;;;;;21.05;3.28;;;4.80;99.90;;;;;;4966933;29;20046;-80
2022/01/28 09:18:09;;;;;;;16.50;3.20;;;4.90;99.90;;;;;;4949756;29;20118;-83
2022/01/28 09:20:36;;;;;;;14.77;2.58;;;5.00;99.90;;;;;;4947155;29;20514;-82
2022/01/28 09:23:04;;;;;;;17.88;3.03;;;4.90;99.90;;;;;;4967983;28;20459;-81
2022/01/28 09:25:30;;;;;;;18.30;3.97;;;5.00;99.90;;;;;;4955312;29;20099;-83
2022/01/28 09:27:56;;;;;;;22.95;2.85;;;5.10;99.90;;;;;;4975375;28;20046;-82
2022/01/28 09:30:22;;;;;;;20.98;3.08;;;5.10;99.90;;;;;;4976041;28;20039;-82
2022/01/28 09:32:47;;;;;;;22.50;3.05;;;5.30;99.90;;;;;;4963490;29;20114;-83
2022/01/28 09:35:13;;;;;;;19.55;3.22;;;5.50;99.90;;;;;;4960849;29;20043;-80
2022/01/28 09:37:39;;;;;;;18.33;4.05;;;5.50;99.90;;;;;;4955751;29;20046;-80
2022/01/28 09:40:06;;;;;;;18.38;3.63;;;5.70;99.90;;;;;;4954869;29;20043;-80
2022/01/28 09:42:35;;;;;;;17.13;3.70;;;5.80;99.90;;;;;;4968409;29;20039;-83
2022/01/28 09:45:03;;;;;;;9.93;2.20;;;5.80;99.90;;;;;;4955069;29;20047;-80
2022/01/28 09:47:31;;;;;;;18.90;2.80;;;5.90;99.90;;;;;;4950314;29;20102;-80
2022/01/28 09:49:58;;;;;;;13.65;4.07;;;6.00;99.90;;;;;;4951936;29;20071;-81
2022/01/28 09:52:23;;;;;;;22.92;3.90;;;6.00;99.90;;;;;;4946110;29;20053;-83
2022/01/28 09:54:49;;;;;;;19.30;2.42;;;5.90;99.90;;;;;;4955871;29;20130;-84
2022/01/28 09:57:19;;;;;;;19.80;2.88;;;5.90;99.90;;;;;;4952104;29;20514;-83
2022/01/28 09:59:45;;;;;;;12.93;5.10;;;5.90;99.90;;;;;;4936994;29;20043;-83
2022/01/28 10:02:11;;;;;;;14.45;3.58;;;5.90;99.90;;;;;;4947962;29;20031;-84
2022/01/28 10:04:37;;;;;;;21.55;4.57;;;5.90;99.90;;;;;;4970341;28;20113;-84
2022/01/28 10:07:15;;;;;;;16.60;3.50;;;5.90;99.90;;;;;;4954998;29;20453;-84
2022/01/28 10:09:57;;;;;;;23.52;4.78;;;5.90;99.90;;;;;;4955753;29;20036;-83
2022/01/28 10:12:33;;;;;;;19.83;3.33;;;6.00;99.90;;;;;;4939068;29;20487;-83
2022/01/28 10:15:16;;;;;;;12.43;2.80;;;6.00;99.90;;;;;;4938985;29;20062;-83
2022/01/28 10:17:56;;;;;;;17.90;3.17;;;6.10;99.90;;;;;;4956583;28;20043;-84
2022/01/28 10:20:23;;;;;;;22.55;3.10;;;6.10;99.90;;;;;;4956520;28;20085;-83
2022/01/28 10:22:50;;;;;;;15.65;3.10;;;6.10;99.90;;;;;;4956019;28;20031;-84
2022/01/28 10:25:28;;;;;;;19.52;3.13;;;6.10;99.90;;;;;;4944731;29;20035;-84
2022/01/28 10:28:05;;;;;;;23.08;4.00;;;6.20;99.90;;;;;;4954709;28;20043;-83
2022/01/28 10:30:35;;;;;;;20.52;3.88;;;6.30;99.90;;;;;;4954495;29;20047;-83
2022/01/28 10:33:19;;;;;;;25.08;3.60;;;6.30;99.90;;;;;;4938898;29;20503;-84
2022/01/28 10:35:59;;;;;;;16.80;2.95;;;6.40;99.90;;;;;;4959337;29;20046;-82
2022/01/28 10:38:36;;;;;;;28.83;4.80;;;6.50;99.90;;;;;;4959237;28;20063;-82
2022/01/28 10:41:10;;;;;;;20.77;3.67;;;6.70;99.90;;;;;;4956735;29;20047;-83
2022/01/28 10:43:51;;;;;;;22.00;4.25;;;6.80;99.90;;;;;;4939717;29;20047;-83
2022/01/28 10:46:49;;;;;;;26.35;3.58;;;7.10;99.90;;;;;;4941235;29;20111;-82
2022/01/28 10:49:14;;;;;;;15.73;3.85;;;7.20;99.90;;;;;;4941545;29;20051;-83
2022/01/28 10:51:42;;;;;;;22.13;4.22;;;7.20;99.90;;;;;;4940499;29;20107;-83
2022/01/28 10:54:13;;;;;;;25.17;5.45;;;7.30;99.90;;;;;;4940314;29;20471;-83
2022/01/28 10:56:50;;;;;;;21.83;3.80;;;7.20;99.90;;;;;;4942021;29;20036;-82
2022/01/28 10:59:21;;;;;;;25.90;3.70;;;7.20;99.90;;;;;;4939609;29;20091;-82
2022/01/28 11:01:47;;;;;;;28.38;7.00;;;7.20;99.90;;;;;;4938490;29;20533;-83
2022/01/28 11:04:15;;;;;;;21.13;3.95;;;7.20;99.90;;;;;;4939927;29;20063;-83
2022/01/28 11:06:42;;;;;;;19.75;4.30;;;7.20;99.90;;;;;;4940356;29;20083;-82
2022/01/28 11:09:08;;;;;;;25.88;4.70;;;7.20;99.90;;;;;;4939401;29;20099;-82
2022/01/28 11:11:35;;;;;;;16.55;3.58;;;7.20;99.90;;;;;;4940888;29;20047;-82
2022/01/28 11:14:01;;;;;;;22.98;4.10;;;7.20;99.90;;;;;;4940903;29;20040;-81
2022/01/28 11:16:27;;;;;;;26.63;8.30;;;7.20;99.90;;;;;;4943950;29;20117;-80
2022/01/28 11:18:55;;;;;;;21.45;4.93;;;7.30;99.90;;;;;;4939492;29;20067;-79
2022/01/28 11:21:30;;;;;;;18.15;3.78;;;7.30;99.90;;;;;;4925332;29;20040;-82
2022/01/28 11:24:04;;;;;;;20.58;4.00;;;7.30;99.90;;;;;;4926239;29;20135;-80
2022/01/28 11:26:50;;;;;;;16.27;4.03;;;7.40;99.90;;;;;;4940218;29;20051;-79
2022/01/28 11:29:20;;;;;;;18.02;3.08;;;7.40;99.90;;;;;;4947809;29;20131;-79
2022/01/28 11:31:51;;;;;;;15.20;3.63;;;7.30;99.90;;;;;;4942513;29;20040;-80
2022/01/28 11:34:24;;;;;;;18.95;3.20;;;7.40;99.90;;;;;;4926782;29;20048;-80
2022/01/28 11:37:14;;;;;;;15.93;3.03;;;7.40;99.90;;;;;;4925702;29;20537;-80
2022/01/28 11:39:45;;;;;;;16.42;3.25;;;7.50;99.90;;;;;;4919670;29;20044;-79
2022/01/28 11:42:24;;;;;;;13.13;2.47;;;7.50;99.90;;;;;;4934674;29;20040;-79
2022/01/28 11:44:59;;;;;;;17.88;3.03;;;7.60;99.90;;;;;;4934407;29;20115;-79
2022/01/28 11:47:36;;;;;;;24.60;2.63;;;7.70;99.90;;;;;;4934680;29;20048;-79
2022/01/28 11:50:15;;;;;;;16.95;4.38;;;7.80;99.90;;;;;;4934753;29;20380;-79
2022/01/28 11:52:55;;;;;;;23.42;2.83;;;7.80;99.90;;;;;;4935642;29;20035;-79
2022/01/28 11:55:21;;;;;;;17.77;3.22;;;7.80;99.90;;;;;;4934128;29;20048;-79
2022/01/28 11:57:58;;;;;;;24.88;2.83;;;7.70;99.90;;;;;;4935439;29;20047;-80
2022/01/28 12:00:30;;;;;;;12.57;2.70;;;7.60;99.90;;;;;;4921774;29;20047;-80
2022/01/28 12:02:55;;;;;;;24.45;3.67;;;7.60;99.90;;;;;;4938137;29;20071;-79
2022/01/28 12:05:30;;;;;;;14.63;3.55;;;7.60;99.90;;;;;;4935607;29;20090;-82
2022/01/28 12:08:00;;;;;;;11.20;2.53;;;7.50;99.90;;;;;;4919559;29;20079;-79
2022/01/28 12:10:27;;;;;;;24.08;3.92;;;7.50;99.90;;;;;;4940867;29;20099;-79
2022/01/28 12:13:00;;;;;;;16.92;3.25;;;7.40;99.90;;;;;;4953057;29;20047;-79
2022/01/28 12:15:29;;;;;;;8.07;2.00;;;7.40;99.90;;;;;;4954764;29;20047;-80
2022/01/28 12:18:06;;;;;;;16.08;2.38;;;7.40;99.90;;;;;;4959933;29;20098;-82
2022/01/28 12:20:44;;;;;;;15.85;2.55;;;7.30;99.90;;;;;;4967413;29;20125;-81
2022/01/28 12:23:09;;;;;;;9.93;2.33;;;7.20;99.90;;;;;;4966578;28;20040;-82
2022/01/28 12:25:35;;;;;;;13.63;2.42;;;7.20;99.90;;;;;;4968015;28;20103;-82
2022/01/28 12:28:24;;;;;;;15.85;2.95;;;7.30;99.90;;;;;;4966745;29;20043;-81
2022/01/28 12:30:58;;;;;;;12.50;2.22;;;7.40;99.90;;;;;;4950802;29;20542;-82
2022/01/28 12:33:25;;;;;;;17.75;3.10;;;7.50;99.90;;;;;;4965235;29;20030;-82
2022/01/28 12:35:53;;;;;;;19.42;4.53;;;7.60;99.90;;;;;;4966601;28;20128;-81
2022/01/28 12:38:25;;;;;;;32.28;3.70;;;7.70;99.90;;;;;;4963324;29;20098;-82
2022/01/28 12:40:53;;;;;;;12.50;2.95;;;7.70;99.90;;;;;;4964969;29;20039;-82
2022/01/28 12:43:21;;;;;;;12.32;3.20;;;7.70;99.90;;;;;;4949438;29;20119;-82
2022/01/28 12:45:59;;;;;;;14.88;4.10;;;7.80;99.90;;;;;;4948995;29;20376;-82
2022/01/28 12:48:25;;;;;;;17.02;3.53;;;7.80;99.90;;;;;;4948238;29;20043;-82
2022/01/28 12:50:55;;;;;;;21.33;4.05;;;7.80;99.90;;;;;;4948779;28;20135;-82
2022/01/28 12:53:40;;;;;;;23.63;3.08;;;7.90;99.90;;;;;;4949907;29;20054;-82
2022/01/28 12:56:06;;;;;;;24.40;3.67;;;7.90;99.90;;;;;;4966059;29;20039;-82
2022/01/28 12:58:33;;;;;;;18.10;3.33;;;7.90;99.90;;;;;;4963550;29;20049;-82
2022/01/28 13:01:07;;;;;;;20.70;3.08;;;7.80;99.90;;;;;;4948189;29;20121;-81
2022/01/28 13:03:38;;;;;;;19.85;3.20;;;7.80;99.90;;;;;;4966347;29;20122;-81
2022/01/28 13:06:26;;;;;;;19.33;4.70;;;7.70;99.90;;;;;;4966455;29;20039;-81
2022/01/28 13:08:53;;;;;;;17.90;3.55;;;7.70;99.90;;;;;;4966167;29;20067;-81
2022/01/28 13:11:19;;;;;;;17.35;3.45;;;7.70;99.90;;;;;;4967725;28;20039;-81
2022/01/28 13:13:54;;;;;;;24.30;3.78;;;7.80;99.90;;;;;;4967643;29;20054;-81
2022/01/28 13:16:31;;;;;;;12.73;3.30;;;7.80;99.90;;;;;;4947337;29;20152;-82
2022/01/28 13:18:58;;;;;;;18.23;3.08;;;7.90;99.90;;;;;;4963468;29;20035;-81
2022/01/28 13:21:24;;;;;;;15.77;3.72;;;7.90;99.90;;;;;;4965609;28;20043;-81
2022/01/28 13:24:08;;;;;;;17.33;2.92;;;7.80;99.90;;;;;;4965104;29;20054;-82
2022/01/28 13:26:37;;;;;;;19.95;3.17;;;7.80;99.90;;;;;;4962462;29;20050;-81
2022/01/28 13:29:09;;;;;;;17.38;2.38;;;7.80;99.90;;;;;;4964456;29;20042;-81
2022/01/28 13:31:35;;;;;;;;;;;7.80;99.90;;;;;;4965968;28;20039;-81
2022/01/28 13:34:02;;;;;;;13.20;3.47;;;7.80;99.90;;;;;;4963828;29;19930;-82
2022/01/28 13:36:43;;;;;;;14.77;2.90;;;7.80;99.90;;;;;;4964661;29;20039;-82
2022/01/28 13:39:20;;;;;;;16.33;2.58;;;7.90;99.90;;;;;;4954131;29;20039;-80
2022/01/28 13:41:50;;;;;;;16.00;2.60;;;7.90;99.90;;;;;;4941339;29;20043;-80
2022/01/28 13:44:27;;;;;;;22.80;2.40;;;7.90;99.90;;;;;;4959848;29;20043;-83
2022/01/28 13:46:58;;;;;;;7.95;2.00;;;7.90;99.90;;;;;;4955772;29;20058;-80
2022/01/28 13:49:34;;;;;;;15.23;2.27;;;7.80;99.90;;;;;;4955957;28;20047;-80
2022/01/28 13:52:11;;;;;;;13.32;2.72;;;7.70;99.90;;;;;;4957175;28;20282;-82
2022/01/28 13:54:37;;;;;;;17.95;2.70;;;7.70;99.90;;;;;;4957270;28;20114;-80
2022/01/28 13:57:05;;;;;;;12.27;2.53;;;7.70;99.90;;;;;;4956866;29;20103;-80
2022/01/28 13:59:33;;;;;;;12.38;2.33;;;7.70;99.90;;;;;;4955777;29;20051;-81
2022/01/28 14:01:59;;;;;;;14.63;2.90;;;7.70;99.90;;;;;;4956615;29;20035;-82
2022/01/28 14:04:41;;;;;;;11.80;2.90;;;7.70;99.90;;;;;;4943782;29;20101;-81
2022/01/28 14:07:12;;;;;;;13.27;2.53;;;7.60;99.90;;;;;;4959857;29;20058;-81
2022/01/28 14:09:59;;;;;;;13.53;2.17;;;7.50;99.90;;;;;;4961455;29;20406;-81
2022/01/28 14:12:32;;;;;;;10.40;2.15;;;7.50;99.90;;;;;;4960750;29;20358;-81
2022/01/28 14:15:09;;;;;;;20.33;4.15;;;7.50;99.90;;;;;;4960601;29;20051;-82
2022/01/28 14:17:35;;;;;;;18.23;1.90;;;7.50;99.90;;;;;;4962333;28;20044;-81
2022/01/28 14:20:00;;;;;;;15.07;2.65;;;7.50;99.90;;;;;;4961497;28;20031;-82
2022/01/28 14:22:26;;;;;;;12.40;2.53;;;7.50;99.90;;;;;;4962011;29;20554;-82